createdAt,value
2018-12-13T00:01:42.766Z,21.97
2018-12-13T00:04:11.878Z,20.80
2018-12-13T00:06:41.058Z,19.83
2018-12-13T00:09:10.174Z,24.73
2018-12-13T00:11:39.374Z,21.53
2018-12-13T00:14:08.486Z,21.50
2018-12-13T00:16:37.611Z,24.70
2018-12-13T00:19:06.763Z,16.87
2018-12-13T00:21:35.951Z,22.37
2018-12-13T00:24:05.089Z,20.03
2018-12-13T00:26:34.215Z,17.93
2018-12-13T00:29:03.372Z,19.70
2018-12-13T00:31:33.242Z,15.77
2018-12-13T00:34:02.364Z,17.97
2018-12-13T00:36:31.555Z,16.97
2018-12-13T00:39:00.679Z,18.20
2018-12-13T00:41:29.800Z,18.10
2018-12-13T00:43:58.970Z,18.00
2018-12-13T00:46:29.049Z,18.03
2018-12-13T00:48:58.233Z,16.40
2018-12-13T00:51:27.395Z,18.00
2018-12-13T00:53:56.534Z,17.63
2018-12-13T00:56:25.758Z,24.13
2018-12-13T00:58:54.881Z,20.93
2018-12-13T01:01:23.998Z,19.47
2018-12-13T01:03:53.170Z,21.10
2018-12-13T01:06:22.444Z,20.37
2018-12-13T01:08:51.605Z,19.43
2018-12-13T01:11:20.775Z,21.83
2018-12-13T01:13:49.910Z,30.10
2018-12-13T01:16:23.855Z,18.83
2018-12-13T01:18:53.369Z,18.30
2018-12-13T01:21:22.484Z,16.47
2018-12-13T01:23:51.652Z,16.03
2018-12-13T01:26:20.819Z,15.50
2018-12-13T01:28:49.950Z,14.77
2018-12-13T01:31:19.087Z,16.00
2018-12-13T01:33:48.254Z,15.13
2018-12-13T01:36:17.370Z,15.50
2018-12-13T01:38:46.468Z,15.60
2018-12-13T01:41:15.633Z,14.97
2018-12-13T01:43:44.767Z,14.57
2018-12-13T01:46:13.942Z,14.93
2018-12-13T01:48:43.065Z,13.77
2018-12-13T01:51:12.169Z,14.23
2018-12-13T01:53:41.309Z,13.30
2018-12-13T01:56:10.431Z,13.13
2018-12-13T01:58:39.603Z,12.80
2018-12-13T02:01:08.755Z,12.07
2018-12-13T02:03:37.891Z,10.87
2018-12-13T02:06:07.012Z,10.93
2018-12-13T02:08:36.255Z,11.30
2018-12-13T02:11:05.405Z,10.80
2018-12-13T02:13:34.518Z,10.97
2018-12-13T02:16:03.678Z,10.93
2018-12-13T02:18:32.877Z,11.00
2018-12-13T02:21:02.543Z,10.70
2018-12-13T02:23:31.687Z,11.30
2018-12-13T02:26:00.883Z,10.40
2018-12-13T02:28:30.026Z,10.73
2018-12-13T02:30:59.161Z,11.13
2018-12-13T02:33:28.326Z,11.27
2018-12-13T02:35:57.459Z,9.87
2018-12-13T02:38:26.610Z,10.60
2018-12-13T02:40:55.733Z,11.67
2018-12-13T02:43:24.835Z,11.43
2018-12-13T02:45:54.002Z,10.00
2018-12-13T02:48:23.106Z,11.30
2018-12-13T02:50:52.238Z,10.93
2018-12-13T02:53:21.424Z,10.80
2018-12-13T02:55:50.526Z,10.60
2018-12-13T02:58:19.634Z,9.87
2018-12-13T03:00:48.781Z,10.27
2018-12-13T03:03:17.931Z,10.87
2018-12-13T03:05:47.069Z,10.47
2018-12-13T03:08:16.223Z,9.83
2018-12-13T03:10:45.399Z,9.73
2018-12-13T03:13:14.506Z,9.50
2018-12-13T03:15:43.640Z,9.63
2018-12-13T03:18:13.480Z,8.40
2018-12-13T03:20:42.702Z,9.37
2018-12-13T03:23:11.875Z,9.33
2018-12-13T03:25:40.974Z,9.33
2018-12-13T03:28:10.084Z,8.10
2018-12-13T03:30:39.242Z,8.60
2018-12-13T03:33:08.380Z,8.53
2018-12-13T03:35:37.624Z,8.33
2018-12-13T03:38:06.826Z,8.97
2018-12-13T03:40:35.951Z,8.27
2018-12-13T03:43:05.093Z,8.20
2018-12-13T03:45:34.241Z,8.67
2018-12-13T03:48:03.359Z,9.00
2018-12-13T03:50:32.475Z,9.40
2018-12-13T03:53:01.616Z,8.70
2018-12-13T03:55:30.739Z,8.23
2018-12-13T03:57:59.919Z,9.40
2018-12-13T04:00:29.097Z,8.30
2018-12-13T04:02:58.234Z,9.10
2018-12-13T04:05:27.453Z,9.90
2018-12-13T04:07:56.662Z,9.43
2018-12-13T04:10:25.788Z,9.47
2018-12-13T04:12:54.927Z,9.70
2018-12-13T04:15:24.117Z,10.60
2018-12-13T04:17:53.282Z,11.13
2018-12-13T04:20:22.410Z,9.63
2018-12-13T04:22:51.565Z,11.13
2018-12-13T04:25:20.732Z,11.27
2018-12-13T04:27:49.857Z,13.77
2018-12-13T04:30:19.049Z,13.00
2018-12-13T04:32:48.185Z,12.10
2018-12-13T04:35:17.329Z,13.80
2018-12-13T04:37:46.526Z,12.57
2018-12-13T04:40:15.624Z,12.30
2018-12-13T04:42:44.766Z,11.47
2018-12-13T04:45:13.958Z,10.63
2018-12-13T04:47:43.083Z,11.53
2018-12-13T04:50:12.232Z,11.43
2018-12-13T04:52:41.392Z,11.90
2018-12-13T04:55:10.501Z,12.10
2018-12-13T04:57:39.605Z,13.50
2018-12-13T05:00:09.094Z,12.77
2018-12-13T05:02:38.262Z,12.30
2018-12-13T05:05:07.404Z,17.57
2018-12-13T05:07:41.746Z,13.40
2018-12-13T05:10:07.753Z,13.47
2018-12-13T05:12:36.899Z,12.77
2018-12-13T05:15:06.514Z,13.40
2018-12-13T05:17:35.643Z,13.53
2018-12-13T05:20:04.990Z,13.47
2018-12-13T05:22:34.111Z,17.33
2018-12-13T05:25:03.195Z,15.83
2018-12-13T05:27:32.402Z,14.00
2018-12-13T05:30:01.530Z,14.17
2018-12-13T05:32:30.623Z,13.17
2018-12-13T05:34:59.767Z,12.50
2018-12-13T05:37:28.854Z,15.20
2018-12-13T05:39:57.973Z,13.40
2018-12-13T05:42:27.110Z,13.93
2018-12-13T05:44:56.236Z,14.60
2018-12-13T05:47:25.400Z,15.23
2018-12-13T05:49:54.523Z,20.57
2018-12-13T05:52:23.624Z,20.53
2018-12-13T05:54:52.805Z,17.00
2018-12-13T05:57:21.986Z,13.47
2018-12-13T05:59:51.108Z,14.43
2018-12-13T06:02:20.265Z,16.63
2018-12-13T06:04:49.407Z,15.70
2018-12-13T06:07:18.540Z,14.70
2018-12-13T06:09:47.699Z,15.23
2018-12-13T06:12:16.838Z,15.33
2018-12-13T06:14:46.030Z,15.60
2018-12-13T06:17:16.128Z,15.57
2018-12-13T06:19:45.313Z,15.53
2018-12-13T06:22:14.694Z,14.87
2018-12-13T06:24:43.796Z,14.60
2018-12-13T06:27:13.122Z,14.20
2018-12-13T06:29:48.730Z,15.43
2018-12-13T06:32:13.881Z,15.33
2018-12-13T06:34:43.554Z,14.67
2018-12-13T06:37:13.192Z,15.17
2018-12-13T06:39:43.373Z,14.77
2018-12-13T06:42:12.478Z,14.27
2018-12-13T06:44:41.596Z,15.47
2018-12-13T06:47:10.815Z,15.80
2018-12-13T06:49:40.042Z,15.13
2018-12-13T06:52:09.429Z,16.07
2018-12-13T06:54:40.222Z,15.73
2018-12-13T06:57:09.506Z,16.73
2018-12-13T06:59:38.762Z,19.40
2018-12-13T07:02:07.918Z,26.30
2018-12-13T07:04:37.042Z,19.50
2018-12-13T07:07:06.347Z,18.30
2018-12-13T07:09:35.507Z,15.73
2018-12-13T07:12:04.655Z,15.60
2018-12-13T07:14:33.890Z,17.03
2018-12-13T07:17:03.084Z,15.87
2018-12-13T07:19:32.922Z,14.87
2018-12-13T07:22:02.120Z,15.30
2018-12-13T07:24:31.564Z,15.07
2018-12-13T07:27:00.666Z,15.60
2018-12-13T07:29:33.353Z,15.17
2018-12-13T07:32:06.089Z,13.40
2018-12-13T07:34:35.299Z,14.90
2018-12-13T07:37:04.414Z,13.80
2018-12-13T07:39:33.523Z,13.47
2018-12-13T07:42:02.664Z,13.70
2018-12-13T07:44:31.775Z,11.53
2018-12-13T07:47:00.942Z,12.40
2018-12-13T07:49:30.195Z,12.97
2018-12-13T07:52:00.203Z,11.53
2018-12-13T07:54:29.492Z,10.97
2018-12-13T07:56:58.733Z,12.57
2018-12-13T07:59:28.070Z,10.47
2018-12-13T08:01:57.189Z,10.70
2018-12-13T08:04:26.273Z,11.60
2018-12-13T08:06:55.402Z,9.90
2018-12-13T08:09:24.592Z,11.13
2018-12-13T08:11:53.737Z,10.03
2018-12-13T08:14:22.887Z,10.40
2018-12-13T08:16:52.029Z,10.23
2018-12-13T08:19:21.221Z,9.73
2018-12-13T08:21:50.328Z,10.27
2018-12-13T08:24:19.503Z,11.63
2018-12-13T08:26:48.702Z,12.77
2018-12-13T08:29:17.839Z,10.47
2018-12-13T08:31:47.019Z,10.77
2018-12-13T08:34:16.106Z,10.40
2018-12-13T08:36:46.095Z,10.87
2018-12-13T08:39:15.205Z,11.03
2018-12-13T08:41:44.313Z,11.50
2018-12-13T08:44:14.078Z,11.47
2018-12-13T08:46:43.175Z,10.53
2018-12-13T08:49:12.295Z,10.57
2018-12-13T08:51:41.409Z,11.60
2018-12-13T08:54:10.573Z,11.50
2018-12-13T08:56:39.849Z,12.03
2018-12-13T08:59:09.096Z,11.57
2018-12-13T09:01:38.378Z,13.80
2018-12-13T09:04:07.646Z,11.07
2018-12-13T09:06:36.937Z,11.03
2018-12-13T09:09:08.910Z,11.87
2018-12-13T09:11:38.082Z,16.50
2018-12-13T09:14:07.218Z,15.97
2018-12-13T09:16:36.442Z,14.23
2018-12-13T09:19:05.655Z,14.87
2018-12-13T09:21:34.795Z,12.30
2018-12-13T09:24:04.069Z,13.60
2018-12-13T09:26:33.235Z,12.50
2018-12-13T09:29:02.453Z,11.93
2018-12-13T09:31:32.326Z,10.37
2018-12-13T09:34:03.311Z,10.63
2018-12-13T09:36:32.908Z,10.57
2018-12-13T09:39:02.165Z,12.03
2018-12-13T09:41:31.417Z,11.27
2018-12-13T09:44:01.027Z,11.70
2018-12-13T09:46:30.286Z,12.40
2018-12-13T09:48:59.414Z,12.30
2018-12-13T09:51:28.583Z,10.43
2018-12-13T09:53:57.860Z,11.33
2018-12-13T09:56:27.427Z,11.70
2018-12-13T09:58:56.590Z,10.67
2018-12-13T10:01:25.862Z,11.37
2018-12-13T10:03:54.970Z,11.63
2018-12-13T10:06:24.162Z,9.60
2018-12-13T10:08:53.345Z,9.93
2018-12-13T10:11:22.630Z,10.27
2018-12-13T10:13:52.372Z,9.63
2018-12-13T10:16:21.763Z,10.03
2018-12-13T10:18:51.029Z,10.20
2018-12-13T10:21:20.228Z,10.47
2018-12-13T10:23:49.334Z,10.17
2018-12-13T10:26:18.482Z,9.77
2018-12-13T10:28:47.683Z,10.13
2018-12-13T10:31:16.848Z,9.93
2018-12-13T10:33:46.128Z,10.50
2018-12-13T10:36:15.311Z,9.37
2018-12-13T10:38:44.459Z,9.63
2018-12-13T10:41:13.644Z,9.63
2018-12-13T10:43:42.815Z,9.40
2018-12-13T10:46:11.983Z,9.77
2018-12-13T10:48:41.162Z,9.77
2018-12-13T10:51:10.299Z,9.10
2018-12-13T10:53:43.707Z,9.17
2018-12-13T10:56:13.036Z,10.17
2018-12-13T10:58:42.158Z,8.90
2018-12-13T11:01:16.400Z,10.37
2018-12-13T11:03:45.522Z,9.70
2018-12-13T11:06:14.646Z,11.90
2018-12-13T11:08:43.844Z,9.97
2018-12-13T11:11:12.956Z,10.37
2018-12-13T11:13:42.050Z,9.73
2018-12-13T11:16:11.177Z,9.90
2018-12-13T11:18:40.274Z,10.07
2018-12-13T11:21:09.361Z,10.57
2018-12-13T11:23:38.565Z,9.93
2018-12-13T11:26:07.701Z,10.70
2018-12-13T11:28:47.682Z,11.83
2018-12-13T11:31:16.844Z,11.43
2018-12-13T11:33:46.287Z,11.20
2018-12-13T11:36:15.464Z,10.30
2018-12-13T11:38:44.694Z,9.63
2018-12-13T11:41:13.794Z,9.93
2018-12-13T11:43:43.002Z,10.17
2018-12-13T11:46:12.211Z,9.90
2018-12-13T11:48:41.662Z,10.10
2018-12-13T11:51:10.827Z,9.27
2018-12-13T11:53:40.784Z,10.13
2018-12-13T11:56:09.899Z,9.40
2018-12-13T11:58:39.118Z,9.93
2018-12-13T12:01:08.395Z,10.37
2018-12-13T12:03:37.526Z,10.60
2018-12-13T12:06:06.694Z,10.13
2018-12-13T12:08:35.864Z,10.13
2018-12-13T12:11:05.095Z,9.50
2018-12-13T12:13:34.303Z,9.87
2018-12-13T12:16:03.513Z,9.87
2018-12-13T12:18:32.725Z,11.00
2018-12-13T12:21:01.912Z,11.80
2018-12-13T12:23:31.013Z,11.20
2018-12-13T12:26:00.145Z,11.17
2018-12-13T12:28:29.310Z,12.33
2018-12-13T12:30:58.475Z,12.47
2018-12-13T12:33:27.766Z,12.00
2018-12-13T12:35:56.895Z,12.80
2018-12-13T12:38:26.032Z,11.97
2018-12-13T12:40:55.200Z,11.90
2018-12-13T12:43:24.455Z,12.23
2018-12-13T12:45:53.799Z,11.83
2018-12-13T12:48:22.901Z,12.00
2018-12-13T12:50:52.023Z,12.60
2018-12-13T12:53:21.200Z,12.47
2018-12-13T12:55:50.955Z,13.23
2018-12-13T12:58:20.073Z,12.50
2018-12-13T13:00:49.228Z,12.40
2018-12-13T13:03:18.427Z,11.90
2018-12-13T13:05:47.579Z,12.53
2018-12-13T13:08:16.782Z,11.93
2018-12-13T13:10:45.910Z,12.40
2018-12-13T13:13:15.101Z,11.73
2018-12-13T13:15:44.355Z,9.53
2018-12-13T13:18:13.481Z,10.13
2018-12-13T13:32:15.886Z,9.50
2018-12-13T13:34:45.050Z,9.53
2018-12-13T13:37:14.146Z,8.10
2018-12-13T13:39:43.242Z,9.73
2018-12-13T13:42:12.420Z,9.13
2018-12-13T13:44:41.568Z,9.67
2018-12-13T13:47:10.817Z,11.67
2018-12-13T13:49:39.949Z,10.33
2018-12-13T13:52:09.062Z,8.43
2018-12-13T13:54:39.060Z,8.63
2018-12-13T13:57:08.241Z,8.90
2018-12-13T13:59:37.340Z,9.80
2018-12-13T14:02:06.485Z,10.00
2018-12-13T14:04:35.778Z,8.73
2018-12-13T14:07:04.951Z,11.17
2018-12-13T14:09:37.939Z,10.00
2018-12-13T14:12:05.394Z,8.97
2018-12-13T14:14:34.595Z,9.87
2018-12-13T14:17:03.720Z,8.60
2018-12-13T14:19:32.868Z,8.33
2018-12-13T14:22:01.971Z,10.27
2018-12-13T14:24:31.078Z,8.47
2018-12-13T14:27:00.357Z,10.03
2018-12-13T14:29:29.523Z,9.43
2018-12-13T14:31:58.665Z,8.47
2018-12-13T14:34:27.797Z,10.97
2018-12-13T14:36:57.135Z,26.57
2018-12-13T14:39:26.312Z,96.40
2018-12-13T14:41:55.422Z,39.97
2018-12-13T14:44:25.145Z,20.77
2018-12-13T14:46:54.417Z,14.83
2018-12-13T14:49:23.718Z,12.60
2018-12-13T14:51:52.660Z,20.57
2018-12-13T14:54:21.514Z,19.73
2018-12-13T14:56:50.399Z,16.67
2018-12-13T14:59:19.322Z,36.33
2018-12-13T15:01:48.340Z,23.17
2018-12-13T15:04:18.004Z,15.43
2018-12-13T15:06:46.855Z,17.10
2018-12-13T15:09:15.778Z,16.13
2018-12-13T15:11:44.646Z,21.37
2018-12-13T15:14:13.539Z,18.63
2018-12-13T15:16:42.381Z,21.43
2018-12-13T15:19:11.319Z,28.43
2018-12-13T15:21:40.702Z,13.93
2018-12-13T15:24:09.618Z,14.57
2018-12-13T15:26:38.554Z,17.53
2018-12-13T15:29:07.482Z,15.30
2018-12-13T15:31:36.383Z,14.10
2018-12-13T15:34:05.310Z,25.07
2018-12-13T15:36:34.229Z,19.63
2018-12-13T15:39:04.339Z,18.93
2018-12-13T15:41:33.317Z,34.50
2018-12-13T15:44:02.373Z,31.73
2018-12-13T15:46:31.221Z,17.03
2018-12-13T15:49:00.069Z,31.13
2018-12-13T15:51:28.962Z,13.47
2018-12-13T15:53:57.907Z,11.50
2018-12-13T15:56:26.826Z,12.27
2018-12-13T15:58:55.807Z,10.33
2018-12-13T16:01:24.729Z,9.07
2018-12-13T16:03:53.812Z,11.63
2018-12-13T16:06:23.673Z,11.33
2018-12-13T16:08:52.522Z,12.43
2018-12-13T16:11:21.450Z,13.13
2018-12-13T16:13:50.465Z,12.30
2018-12-13T16:16:19.387Z,12.70
2018-12-13T16:18:48.334Z,12.37
2018-12-13T16:21:19.145Z,13.70
2018-12-13T16:23:48.005Z,11.57
2018-12-13T16:26:17.764Z,15.27
2018-12-13T16:28:47.288Z,79.40
2018-12-13T16:31:16.298Z,29.30
2018-12-13T16:33:45.223Z,37.17
2018-12-13T16:36:14.220Z,24.03
2018-12-13T16:38:43.907Z,30.97
2018-12-13T16:41:12.811Z,56.23
2018-12-13T16:43:41.778Z,63.60
2018-12-13T16:46:10.858Z,39.67
2018-12-13T16:48:39.760Z,19.53
2018-12-13T16:51:08.718Z,42.30
2018-12-13T16:53:37.684Z,30.83
2018-12-13T16:56:06.681Z,23.20
2018-12-13T16:58:39.371Z,36.87
2018-12-13T17:01:08.646Z,18.87
2018-12-13T17:03:41.272Z,16.97
2018-12-13T17:06:10.354Z,30.80
2018-12-13T17:08:39.295Z,15.77
2018-12-13T17:11:08.240Z,14.43
2018-12-13T17:13:37.167Z,19.20
2018-12-13T17:16:06.136Z,19.40
2018-12-13T17:18:35.013Z,17.77
2018-12-13T17:21:03.874Z,73.57
2018-12-13T17:23:32.832Z,45.37
2018-12-13T17:26:01.770Z,28.67
2018-12-13T17:28:30.670Z,46.50
2018-12-13T17:30:59.647Z,24.37
2018-12-13T17:33:28.514Z,28.47
2018-12-13T17:35:57.433Z,18.07
2018-12-13T17:38:27.070Z,16.87
2018-12-13T17:40:55.955Z,12.73
2018-12-13T17:43:24.812Z,15.50
2018-12-13T17:45:53.782Z,20.43
2018-12-13T17:48:22.675Z,36.90
2018-12-13T17:50:51.574Z,26.73
2018-12-13T17:53:20.467Z,37.87
2018-12-13T17:55:51.804Z,24.93
2018-12-13T17:58:20.708Z,46.93
2018-12-13T18:00:49.734Z,97.17
2018-12-13T18:03:18.713Z,31.87
2018-12-13T18:05:47.766Z,25.60
2018-12-13T18:08:16.655Z,14.23
2018-12-13T18:10:45.497Z,15.43
2018-12-13T18:13:14.373Z,14.00
2018-12-13T18:15:43.335Z,15.73
2018-12-13T18:18:12.190Z,17.13
2018-12-13T18:20:41.081Z,15.00
2018-12-13T18:23:10.182Z,34.40
2018-12-13T18:25:39.030Z,15.37
2018-12-13T18:28:07.927Z,24.53
2018-12-13T18:30:36.811Z,18.07
2018-12-13T18:33:05.738Z,13.03
2018-12-13T18:35:34.895Z,13.57
2018-12-13T18:38:03.790Z,15.43
2018-12-13T18:40:35.629Z,19.67
2018-12-13T18:43:03.703Z,24.80
2018-12-13T18:45:37.012Z,20.87
2018-12-13T18:48:06.506Z,17.63
2018-12-13T18:50:35.461Z,17.73
2018-12-13T18:53:04.531Z,34.07
2018-12-13T18:55:33.486Z,19.00
2018-12-13T18:58:02.477Z,16.97
2018-12-13T19:00:31.418Z,16.47
2018-12-13T19:03:00.594Z,25.37
2018-12-13T19:05:29.470Z,15.03
2018-12-13T19:07:58.415Z,17.90
2018-12-13T19:10:27.376Z,16.10
2018-12-13T19:12:56.241Z,16.20
2018-12-13T19:15:25.142Z,23.13
2018-12-13T19:17:54.128Z,20.43
2018-12-13T19:23:23.138Z,15.23
2018-12-13T19:25:55.821Z,19.53
2018-12-13T19:28:24.814Z,20.77
2018-12-13T19:30:53.812Z,19.47
2018-12-13T19:33:22.781Z,23.80
2018-12-13T19:35:51.953Z,20.43
2018-12-13T19:38:21.546Z,25.57
2018-12-13T19:40:50.587Z,16.47
2018-12-13T19:43:19.498Z,17.03
2018-12-13T19:45:48.424Z,16.67
2018-12-13T19:48:17.503Z,14.83
2018-12-13T19:50:46.494Z,13.53
2018-12-13T19:53:15.694Z,12.80
2018-12-13T19:55:44.555Z,20.27
2018-12-13T19:58:13.390Z,11.50
2018-12-13T20:00:42.345Z,15.07
2018-12-13T20:03:11.271Z,16.17
2018-12-13T20:05:40.165Z,20.70
2018-12-13T20:08:10.803Z,26.67
2018-12-13T20:10:39.693Z,28.13
2018-12-13T20:13:09.139Z,14.00
2018-12-13T20:15:38.133Z,11.07
2018-12-13T20:18:07.067Z,11.67
2018-12-13T20:20:36.639Z,10.30
2018-12-13T20:23:06.302Z,14.43
2018-12-13T20:25:35.341Z,12.40
2018-12-13T20:28:04.236Z,19.27
2018-12-13T20:30:33.419Z,13.57
2018-12-13T20:33:02.450Z,30.23
2018-12-13T20:35:31.449Z,83.80
2018-12-13T20:38:00.404Z,62.70
2018-12-13T20:40:29.297Z,47.00
2018-12-13T20:42:58.294Z,30.87
2018-12-13T20:45:27.227Z,34.20
2018-12-13T20:47:56.211Z,20.93
2018-12-13T20:50:25.215Z,51.73
2018-12-13T20:52:55.195Z,33.90
2018-12-13T20:55:24.084Z,82.60
2018-12-13T20:57:53.078Z,33.43
2018-12-13T21:00:22.212Z,65.87
2018-12-13T21:02:51.164Z,21.13
2018-12-13T21:05:20.090Z,17.57
2018-12-13T21:07:48.950Z,46.30
2018-12-13T21:10:17.980Z,60.30
2018-12-13T21:12:47.102Z,66.77
2018-12-13T21:15:16.070Z,37.87
2018-12-13T21:17:45.042Z,22.40
2018-12-13T21:20:13.990Z,33.03
2018-12-13T21:22:43.049Z,16.37
2018-12-13T21:25:12.056Z,19.03
2018-12-13T21:27:40.931Z,21.57
2018-12-13T21:30:10.080Z,30.43
2018-12-13T21:32:39.009Z,14.83
2018-12-13T21:35:08.185Z,12.23
2018-12-13T21:37:37.129Z,11.57
2018-12-13T21:40:07.698Z,13.53
2018-12-13T21:42:36.635Z,15.77
2018-12-13T21:45:05.914Z,11.57
2018-12-13T21:47:34.965Z,10.80
2018-12-13T21:50:04.388Z,12.53
2018-12-13T21:52:33.295Z,18.13
2018-12-13T21:55:02.239Z,25.67
2018-12-13T21:57:31.161Z,19.17
2018-12-13T22:00:00.087Z,30.00
2018-12-13T22:02:29.093Z,22.03
2018-12-13T22:04:57.970Z,23.77
2018-12-13T22:07:26.818Z,24.70
2018-12-13T22:09:55.855Z,25.23
2018-12-13T22:12:24.795Z,25.40
2018-12-13T22:14:53.679Z,25.40
2018-12-13T22:17:22.599Z,24.50
2018-12-13T22:19:51.550Z,24.60
2018-12-13T22:22:20.445Z,23.27
2018-12-13T22:24:49.359Z,23.77
2018-12-13T22:27:18.283Z,23.13
2018-12-13T22:29:47.281Z,22.43
2018-12-13T22:32:16.211Z,24.00
2018-12-13T22:34:45.366Z,21.43
2018-12-13T22:37:14.395Z,22.40
2018-12-13T22:39:43.318Z,34.63
2018-12-13T22:42:12.251Z,21.97
2018-12-13T22:44:41.192Z,22.17
2018-12-13T22:47:10.152Z,18.10
2018-12-13T22:49:39.035Z,17.37
2018-12-13T22:52:08.025Z,16.03
2018-12-13T22:54:36.905Z,17.40
2018-12-13T22:57:05.785Z,18.63
2018-12-13T22:59:35.762Z,20.07
2018-12-13T23:02:04.651Z,18.57
2018-12-13T23:04:33.554Z,21.57
2018-12-13T23:07:02.505Z,22.87
2018-12-13T23:09:31.454Z,26.53
2018-12-13T23:12:00.443Z,25.80
2018-12-13T23:14:29.602Z,26.27
2018-12-13T23:16:58.658Z,31.20
2018-12-13T23:19:27.630Z,29.77
2018-12-13T23:21:56.593Z,22.23
2018-12-13T23:24:25.468Z,23.10
2018-12-13T23:26:54.426Z,18.00
2018-12-13T23:29:23.432Z,23.43
2018-12-13T23:31:52.481Z,23.13
2018-12-13T23:34:21.461Z,17.60
2018-12-13T23:36:50.387Z,18.53
2018-12-13T23:39:19.306Z,17.37
2018-12-13T23:41:48.945Z,19.93
2018-12-13T23:44:17.896Z,18.70
2018-12-13T23:46:46.823Z,18.27
2018-12-13T23:49:15.894Z,18.67
2018-12-13T23:51:44.884Z,16.60
2018-12-13T23:54:14.047Z,17.63
2018-12-13T23:56:42.951Z,19.23
2018-12-13T23:59:12.065Z,19.87
